sensor_id;sensor_type;location;lat;lon;timestamp;temperature;humidity
20977;DHT22;10647;51.016;3.720;2023-05-29T00:02:06;16.00;99.90
20977;DHT22;10647;51.016;3.720;2023-05-29T00:04:33;16.00;99.90
20977;DHT22;10647;51.016;3.720;2023-05-29T00:07:02;16.00;99.90
20977;DHT22;10647;51.016;3.720;2023-05-29T00:09:30;16.00;99.90
20977;DHT22;10647;51.016;3.720;2023-05-29T00:11:57;15.90;99.90
20977;DHT22;10647;51.016;3.720;2023-05-29T00:14:25;15.90;99.90
20977;DHT22;10647;51.016;3.720;2023-05-29T00:16:53;15.90;99.90
20977;DHT22;10647;51.016;3.720;2023-05-29T00:19:20;15.90;99.90
20977;DHT22;10647;51.016;3.720;2023-05-29T00:21:48;15.80;99.90
20977;DHT22;10647;51.016;3.720;2023-05-29T00:24:16;15.80;99.90
20977;DHT22;10647;51.016;3.720;2023-05-29T00:26:43;15.70;99.90
20977;DHT22;10647;51.016;3.720;2023-05-29T00:29:12;15.70;99.90
20977;DHT22;10647;51.016;3.720;2023-05-29T00:31:39;15.80;99.90
20977;DHT22;10647;51.016;3.720;2023-05-29T00:34:10;15.70;99.90
20977;DHT22;10647;51.016;3.720;2023-05-29T00:36:37;15.60;99.90
20977;DHT22;10647;51.016;3.720;2023-05-29T00:39:05;15.60;99.90
20977;DHT22;10647;51.016;3.720;2023-05-29T00:41:34;15.60;99.90
20977;DHT22;10647;51.016;3.720;2023-05-29T00:44:01;15.60;99.90
20977;DHT22;10647;51.016;3.720;2023-05-29T00:46:31;15.60;99.90
20977;DHT22;10647;51.016;3.720;2023-05-29T00:48:59;15.50;99.90
20977;DHT22;10647;51.016;3.720;2023-05-29T00:51:28;15.50;99.90
20977;DHT22;10647;51.016;3.720;2023-05-29T00:53:58;15.40;99.90
20977;DHT22;10647;51.016;3.720;2023-05-29T00:56:26;15.40;99.90
20977;DHT22;10647;51.016;3.720;2023-05-29T00:58:53;15.40;99.90
20977;DHT22;10647;51.016;3.720;2023-05-29T01:01:22;15.40;99.90
20977;DHT22;10647;51.016;3.720;2023-05-29T01:03:49;15.30;99.90
20977;DHT22;10647;51.016;3.720;2023-05-29T01:06:18;15.20;99.90
20977;DHT22;10647;51.016;3.720;2023-05-29T01:08:48;15.20;99.90
20977;DHT22;10647;51.016;3.720;2023-05-29T01:11:22;15.20;99.90
20977;DHT22;10647;51.016;3.720;2023-05-29T01:13:49;15.20;99.90
20977;DHT22;10647;51.016;3.720;2023-05-29T01:16:35;15.10;99.90
20977;DHT22;10647;51.016;3.720;2023-05-29T01:21:56;15.00;99.90
20977;DHT22;10647;51.016;3.720;2023-05-29T01:24:26;15.00;99.90
20977;DHT22;10647;51.016;3.720;2023-05-29T01:27:00;14.80;99.90
20977;DHT22;10647;51.016;3.720;2023-05-29T01:29:34;14.70;99.90
20977;DHT22;10647;51.016;3.720;2023-05-29T01:32:02;14.70;99.90
20977;DHT22;10647;51.016;3.720;2023-05-29T01:34:30;14.70;99.90
20977;DHT22;10647;51.016;3.720;2023-05-29T01:36:57;14.60;99.90
20977;DHT22;10647;51.016;3.720;2023-05-29T01:39:25;14.60;99.90
20977;DHT22;10647;51.016;3.720;2023-05-29T01:41:55;14.60;99.90
20977;DHT22;10647;51.016;3.720;2023-05-29T01:44:23;14.60;99.90
20977;DHT22;10647;51.016;3.720;2023-05-29T01:46:53;14.60;99.90
20977;DHT22;10647;51.016;3.720;2023-05-29T01:49:23;14.50;99.90
20977;DHT22;10647;51.016;3.720;2023-05-29T01:51:51;14.40;99.90
20977;DHT22;10647;51.016;3.720;2023-05-29T01:54:18;14.40;99.90
20977;DHT22;10647;51.016;3.720;2023-05-29T01:56:47;14.40;99.90
20977;DHT22;10647;51.016;3.720;2023-05-29T01:59:15;14.40;99.90
20977;DHT22;10647;51.016;3.720;2023-05-29T02:01:42;14.40;99.90
20977;DHT22;10647;51.016;3.720;2023-05-29T02:04:10;14.30;99.90
20977;DHT22;10647;51.016;3.720;2023-05-29T02:06:37;14.30;99.90
20977;DHT22;10647;51.016;3.720;2023-05-29T02:09:05;14.30;99.90
20977;DHT22;10647;51.016;3.720;2023-05-29T02:11:33;14.20;99.90
20977;DHT22;10647;51.016;3.720;2023-05-29T02:14:01;14.20;99.90
20977;DHT22;10647;51.016;3.720;2023-05-29T02:16:29;14.20;99.90
20977;DHT22;10647;51.016;3.720;2023-05-29T02:19:00;14.10;99.90
20977;DHT22;10647;51.016;3.720;2023-05-29T02:21:28;14.10;99.90
20977;DHT22;10647;51.016;3.720;2023-05-29T02:23:55;14.10;99.90
20977;DHT22;10647;51.016;3.720;2023-05-29T02:26:23;14.10;99.90
20977;DHT22;10647;51.016;3.720;2023-05-29T02:28:51;14.20;99.90
20977;DHT22;10647;51.016;3.720;2023-05-29T02:31:18;14.10;99.90
20977;DHT22;10647;51.016;3.720;2023-05-29T02:33:46;14.10;99.90
20977;DHT22;10647;51.016;3.720;2023-05-29T02:36:13;14.00;99.90
20977;DHT22;10647;51.016;3.720;2023-05-29T02:38:42;13.90;99.90
20977;DHT22;10647;51.016;3.720;2023-05-29T02:41:10;13.90;99.90
20977;DHT22;10647;51.016;3.720;2023-05-29T02:43:37;13.90;99.90
20977;DHT22;10647;51.016;3.720;2023-05-29T02:46:05;13.90;99.90
20977;DHT22;10647;51.016;3.720;2023-05-29T02:48:32;13.80;99.90
20977;DHT22;10647;51.016;3.720;2023-05-29T02:51:00;13.80;99.90
20977;DHT22;10647;51.016;3.720;2023-05-29T02:53:27;13.90;99.90
20977;DHT22;10647;51.016;3.720;2023-05-29T02:55:55;13.80;99.90
20977;DHT22;10647;51.016;3.720;2023-05-29T02:58:22;13.80;99.90
20977;DHT22;10647;51.016;3.720;2023-05-29T03:00:50;13.80;99.90
20977;DHT22;10647;51.016;3.720;2023-05-29T03:03:19;13.70;99.90
20977;DHT22;10647;51.016;3.720;2023-05-29T03:05:46;13.70;99.90
20977;DHT22;10647;51.016;3.720;2023-05-29T03:08:14;13.70;99.90
20977;DHT22;10647;51.016;3.720;2023-05-29T03:10:41;13.70;99.90
20977;DHT22;10647;51.016;3.720;2023-05-29T03:13:10;13.70;99.90
20977;DHT22;10647;51.016;3.720;2023-05-29T03:15:37;13.60;99.90
20977;DHT22;10647;51.016;3.720;2023-05-29T03:18:05;13.60;99.90
20977;DHT22;10647;51.016;3.720;2023-05-29T03:20:32;13.60;99.90
20977;DHT22;10647;51.016;3.720;2023-05-29T03:23:00;13.60;99.90
20977;DHT22;10647;51.016;3.720;2023-05-29T03:25:27;13.60;99.90
20977;DHT22;10647;51.016;3.720;2023-05-29T03:27:55;13.50;99.90
20977;DHT22;10647;51.016;3.720;2023-05-29T03:30:22;13.40;99.90
20977;DHT22;10647;51.016;3.720;2023-05-29T03:32:50;13.30;99.90
20977;DHT22;10647;51.016;3.720;2023-05-29T03:35:17;13.40;99.90
20977;DHT22;10647;51.016;3.720;2023-05-29T03:37:45;13.30;99.90
20977;DHT22;10647;51.016;3.720;2023-05-29T03:40:13;13.30;99.90
20977;DHT22;10647;51.016;3.720;2023-05-29T03:42:40;13.40;99.90
20977;DHT22;10647;51.016;3.720;2023-05-29T03:45:08;13.40;99.90
20977;DHT22;10647;51.016;3.720;2023-05-29T03:47:35;13.30;99.90
20977;DHT22;10647;51.016;3.720;2023-05-29T03:50:03;13.30;99.90
20977;DHT22;10647;51.016;3.720;2023-05-29T03:52:31;13.40;99.90
20977;DHT22;10647;51.016;3.720;2023-05-29T03:54:58;13.40;99.90
20977;DHT22;10647;51.016;3.720;2023-05-29T03:57:26;13.30;99.90
20977;DHT22;10647;51.016;3.720;2023-05-29T03:59:53;13.30;99.90
20977;DHT22;10647;51.016;3.720;2023-05-29T04:02:21;13.30;99.90
20977;DHT22;10647;51.016;3.720;2023-05-29T04:04:48;13.30;99.90
20977;DHT22;10647;51.016;3.720;2023-05-29T04:07:16;13.30;99.90
20977;DHT22;10647;51.016;3.720;2023-05-29T04:09:44;13.30;99.90
20977;DHT22;10647;51.016;3.720;2023-05-29T04:12:13;13.30;99.90
20977;DHT22;10647;51.016;3.720;2023-05-29T04:14:42;13.30;99.90
20977;DHT22;10647;51.016;3.720;2023-05-29T04:17:09;13.20;99.90
20977;DHT22;10647;51.016;3.720;2023-05-29T04:19:37;13.20;99.90
20977;DHT22;10647;51.016;3.720;2023-05-29T04:22:04;13.30;99.90
20977;DHT22;10647;51.016;3.720;2023-05-29T04:24:51;13.40;99.90
20977;DHT22;10647;51.016;3.720;2023-05-29T04:27:19;13.40;99.90
20977;DHT22;10647;51.016;3.720;2023-05-29T04:29:46;13.40;99.90
20977;DHT22;10647;51.016;3.720;2023-05-29T04:32:14;13.40;99.90
20977;DHT22;10647;51.016;3.720;2023-05-29T04:34:41;13.50;99.90
20977;DHT22;10647;51.016;3.720;2023-05-29T04:37:11;13.60;99.90
20977;DHT22;10647;51.016;3.720;2023-05-29T04:39:40;13.60;99.90
20977;DHT22;10647;51.016;3.720;2023-05-29T04:42:07;13.60;99.90
20977;DHT22;10647;51.016;3.720;2023-05-29T04:44:35;13.50;99.90
20977;DHT22;10647;51.016;3.720;2023-05-29T04:47:02;13.60;99.90
20977;DHT22;10647;51.016;3.720;2023-05-29T04:49:30;13.60;99.90
20977;DHT22;10647;51.016;3.720;2023-05-29T04:51:58;13.70;99.90
20977;DHT22;10647;51.016;3.720;2023-05-29T04:54:27;13.70;99.90
20977;DHT22;10647;51.016;3.720;2023-05-29T04:56:54;13.70;99.90
20977;DHT22;10647;51.016;3.720;2023-05-29T04:59:22;13.80;99.90
20977;DHT22;10647;51.016;3.720;2023-05-29T05:01:49;13.80;99.90
20977;DHT22;10647;51.016;3.720;2023-05-29T05:04:17;13.80;99.90
20977;DHT22;10647;51.016;3.720;2023-05-29T05:06:44;13.80;99.90
20977;DHT22;10647;51.016;3.720;2023-05-29T05:09:12;13.90;99.90
20977;DHT22;10647;51.016;3.720;2023-05-29T05:11:39;13.90;99.90
20977;DHT22;10647;51.016;3.720;2023-05-29T05:14:07;14.00;99.90
20977;DHT22;10647;51.016;3.720;2023-05-29T05:16:34;14.00;99.90
20977;DHT22;10647;51.016;3.720;2023-05-29T05:19:04;14.10;99.90
20977;DHT22;10647;51.016;3.720;2023-05-29T05:21:32;14.10;99.90
20977;DHT22;10647;51.016;3.720;2023-05-29T05:24:00;14.20;99.90
20977;DHT22;10647;51.016;3.720;2023-05-29T05:26:27;14.10;99.90
20977;DHT22;10647;51.016;3.720;2023-05-29T05:28:55;14.10;99.90
20977;DHT22;10647;51.016;3.720;2023-05-29T05:31:23;14.10;99.90
20977;DHT22;10647;51.016;3.720;2023-05-29T05:33:51;14.00;99.90
20977;DHT22;10647;51.016;3.720;2023-05-29T05:36:19;14.10;99.90
20977;DHT22;10647;51.016;3.720;2023-05-29T05:38:47;14.30;99.90
20977;DHT22;10647;51.016;3.720;2023-05-29T05:41:15;14.40;99.90
20977;DHT22;10647;51.016;3.720;2023-05-29T05:43:42;14.40;99.90
20977;DHT22;10647;51.016;3.720;2023-05-29T05:46:10;14.50;99.90
20977;DHT22;10647;51.016;3.720;2023-05-29T05:48:37;14.60;99.90
20977;DHT22;10647;51.016;3.720;2023-05-29T05:51:05;14.70;99.90
20977;DHT22;10647;51.016;3.720;2023-05-29T05:53:32;14.70;99.90
20977;DHT22;10647;51.016;3.720;2023-05-29T05:56:00;14.80;99.90
20977;DHT22;10647;51.016;3.720;2023-05-29T05:58:27;14.80;99.90
20977;DHT22;10647;51.016;3.720;2023-05-29T06:00:55;14.90;99.90
20977;DHT22;10647;51.016;3.720;2023-05-29T06:03:23;15.00;99.90
20977;DHT22;10647;51.016;3.720;2023-05-29T06:05:51;15.00;99.90
20977;DHT22;10647;51.016;3.720;2023-05-29T06:08:20;15.00;99.90
20977;DHT22;10647;51.016;3.720;2023-05-29T06:10:48;15.20;99.90
20977;DHT22;10647;51.016;3.720;2023-05-29T06:13:16;15.20;99.90
20977;DHT22;10647;51.016;3.720;2023-05-29T06:15:47;15.30;99.90
20977;DHT22;10647;51.016;3.720;2023-05-29T06:18:14;15.30;99.90
20977;DHT22;10647;51.016;3.720;2023-05-29T06:20:41;15.40;99.90
20977;DHT22;10647;51.016;3.720;2023-05-29T06:23:09;15.40;99.90
20977;DHT22;10647;51.016;3.720;2023-05-29T06:25:37;15.40;99.90
20977;DHT22;10647;51.016;3.720;2023-05-29T06:28:04;15.50;99.90
20977;DHT22;10647;51.016;3.720;2023-05-29T06:30:33;15.50;99.90
20977;DHT22;10647;51.016;3.720;2023-05-29T06:33:02;15.60;99.90
20977;DHT22;10647;51.016;3.720;2023-05-29T06:35:30;15.50;99.90
20977;DHT22;10647;51.016;3.720;2023-05-29T06:37:58;15.60;99.90
20977;DHT22;10647;51.016;3.720;2023-05-29T06:40:26;15.60;99.90
20977;DHT22;10647;51.016;3.720;2023-05-29T06:42:56;15.70;99.90
20977;DHT22;10647;51.016;3.720;2023-05-29T06:45:23;15.70;99.90
20977;DHT22;10647;51.016;3.720;2023-05-29T06:47:51;15.60;99.90
20977;DHT22;10647;51.016;3.720;2023-05-29T06:50:19;15.60;99.90
20977;DHT22;10647;51.016;3.720;2023-05-29T06:52:46;15.80;99.90
20977;DHT22;10647;51.016;3.720;2023-05-29T06:55:15;15.90;99.90
20977;DHT22;10647;51.016;3.720;2023-05-29T06:57:43;15.90;99.90
20977;DHT22;10647;51.016;3.720;2023-05-29T07:00:11;15.90;99.90
20977;DHT22;10647;51.016;3.720;2023-05-29T07:02:39;16.00;99.90
20977;DHT22;10647;51.016;3.720;2023-05-29T07:05:07;16.10;99.90
20977;DHT22;10647;51.016;3.720;2023-05-29T07:07:35;16.20;99.90
20977;DHT22;10647;51.016;3.720;2023-05-29T07:10:03;16.20;99.90
20977;DHT22;10647;51.016;3.720;2023-05-29T07:12:32;16.30;99.90
20977;DHT22;10647;51.016;3.720;2023-05-29T07:14:59;16.50;99.90
20977;DHT22;10647;51.016;3.720;2023-05-29T07:17:27;16.50;99.90
20977;DHT22;10647;51.016;3.720;2023-05-29T07:19:54;16.60;99.90
20977;DHT22;10647;51.016;3.720;2023-05-29T07:22:22;16.60;99.90
20977;DHT22;10647;51.016;3.720;2023-05-29T07:24:49;16.70;99.90
20977;DHT22;10647;51.016;3.720;2023-05-29T07:27:17;16.90;99.90
20977;DHT22;10647;51.016;3.720;2023-05-29T07:29:44;16.90;99.90
20977;DHT22;10647;51.016;3.720;2023-05-29T07:32:12;16.80;99.90
20977;DHT22;10647;51.016;3.720;2023-05-29T07:34:39;16.70;99.90
20977;DHT22;10647;51.016;3.720;2023-05-29T07:37:08;16.70;99.90
20977;DHT22;10647;51.016;3.720;2023-05-29T07:39:36;16.80;99.90
20977;DHT22;10647;51.016;3.720;2023-05-29T07:42:03;16.90;99.90
20977;DHT22;10647;51.016;3.720;2023-05-29T07:44:32;16.90;99.90
20977;DHT22;10647;51.016;3.720;2023-05-29T07:47:00;16.90;99.90
20977;DHT22;10647;51.016;3.720;2023-05-29T07:49:27;17.00;99.90
20977;DHT22;10647;51.016;3.720;2023-05-29T07:51:55;17.10;99.90
20977;DHT22;10647;51.016;3.720;2023-05-29T07:54:22;17.20;99.90
20977;DHT22;10647;51.016;3.720;2023-05-29T07:56:50;17.30;99.90
20977;DHT22;10647;51.016;3.720;2023-05-29T07:59:17;17.50;99.90
20977;DHT22;10647;51.016;3.720;2023-05-29T08:01:45;17.70;99.90
20977;DHT22;10647;51.016;3.720;2023-05-29T08:04:13;17.90;99.90
20977;DHT22;10647;51.016;3.720;2023-05-29T08:06:41;17.70;99.90
20977;DHT22;10647;51.016;3.720;2023-05-29T08:09:11;17.80;99.90
20977;DHT22;10647;51.016;3.720;2023-05-29T08:11:38;17.90;99.90
20977;DHT22;10647;51.016;3.720;2023-05-29T08:14:06;18.00;99.90
20977;DHT22;10647;51.016;3.720;2023-05-29T08:16:34;17.90;99.90
20977;DHT22;10647;51.016;3.720;2023-05-29T08:19:02;17.90;99.90
20977;DHT22;10647;51.016;3.720;2023-05-29T08:21:30;17.90;99.90
20977;DHT22;10647;51.016;3.720;2023-05-29T08:24:02;18.00;99.90
20977;DHT22;10647;51.016;3.720;2023-05-29T08:26:33;18.20;99.90
20977;DHT22;10647;51.016;3.720;2023-05-29T08:29:01;18.30;99.90
20977;DHT22;10647;51.016;3.720;2023-05-29T08:31:30;18.20;99.90
20977;DHT22;10647;51.016;3.720;2023-05-29T08:33:58;18.20;99.90
20977;DHT22;10647;51.016;3.720;2023-05-29T08:36:25;18.30;99.90
20977;DHT22;10647;51.016;3.720;2023-05-29T08:38:53;18.30;99.90
20977;DHT22;10647;51.016;3.720;2023-05-29T08:41:28;18.30;99.90
20977;DHT22;10647;51.016;3.720;2023-05-29T08:43:54;18.20;99.90
20977;DHT22;10647;51.016;3.720;2023-05-29T08:46:22;18.10;99.90
20977;DHT22;10647;51.016;3.720;2023-05-29T08:48:54;18.30;99.90
20977;DHT22;10647;51.016;3.720;2023-05-29T08:51:31;18.40;99.90
20977;DHT22;10647;51.016;3.720;2023-05-29T08:54:01;18.50;99.90
20977;DHT22;10647;51.016;3.720;2023-05-29T08:56:32;18.60;99.90
20977;DHT22;10647;51.016;3.720;2023-05-29T08:59:01;18.60;99.90
20977;DHT22;10647;51.016;3.720;2023-05-29T09:01:30;18.80;99.90
20977;DHT22;10647;51.016;3.720;2023-05-29T09:03:58;18.90;99.90
20977;DHT22;10647;51.016;3.720;2023-05-29T09:06:28;19.20;99.90
20977;DHT22;10647;51.016;3.720;2023-05-29T09:08:55;19.40;99.90
20977;DHT22;10647;51.016;3.720;2023-05-29T09:11:24;19.50;99.90
20977;DHT22;10647;51.016;3.720;2023-05-29T09:13:52;19.40;99.90
20977;DHT22;10647;51.016;3.720;2023-05-29T09:16:20;19.40;99.90
20977;DHT22;10647;51.016;3.720;2023-05-29T09:18:48;19.50;99.90
20977;DHT22;10647;51.016;3.720;2023-05-29T09:21:27;19.50;99.90
20977;DHT22;10647;51.016;3.720;2023-05-29T09:24:03;19.40;99.90
20977;DHT22;10647;51.016;3.720;2023-05-29T09:26:27;19.60;99.90
20977;DHT22;10647;51.016;3.720;2023-05-29T09:28:55;19.80;99.90
20977;DHT22;10647;51.016;3.720;2023-05-29T09:31:24;20.00;99.90
20977;DHT22;10647;51.016;3.720;2023-05-29T09:33:51;19.90;99.70
20977;DHT22;10647;51.016;3.720;2023-05-29T09:36:23;19.80;99.70
20977;DHT22;10647;51.016;3.720;2023-05-29T09:38:51;19.80;99.90
20977;DHT22;10647;51.016;3.720;2023-05-29T09:41:23;20.00;99.60
20977;DHT22;10647;51.016;3.720;2023-05-29T09:43:50;20.10;99.60
20977;DHT22;10647;51.016;3.720;2023-05-29T09:46:20;20.00;99.10
20977;DHT22;10647;51.016;3.720;2023-05-29T09:48:49;19.90;99.30
20977;DHT22;10647;51.016;3.720;2023-05-29T09:51:23;20.10;99.30
20977;DHT22;10647;51.016;3.720;2023-05-29T09:53:52;20.10;99.00
20977;DHT22;10647;51.016;3.720;2023-05-29T09:56:23;20.30;98.60
20977;DHT22;10647;51.016;3.720;2023-05-29T09:58:52;20.30;98.30
20977;DHT22;10647;51.016;3.720;2023-05-29T10:01:22;20.50;98.10
20977;DHT22;10647;51.016;3.720;2023-05-29T10:03:50;20.30;98.10
20977;DHT22;10647;51.016;3.720;2023-05-29T10:06:21;20.40;98.00
20977;DHT22;10647;51.016;3.720;2023-05-29T10:08:52;20.50;98.20
20977;DHT22;10647;51.016;3.720;2023-05-29T10:11:22;20.70;97.70
20977;DHT22;10647;51.016;3.720;2023-05-29T10:13:59;20.90;96.90
20977;DHT22;10647;51.016;3.720;2023-05-29T10:16:27;21.00;96.90
20977;DHT22;10647;51.016;3.720;2023-05-29T10:18:57;21.10;96.70
20977;DHT22;10647;51.016;3.720;2023-05-29T10:21:30;21.10;96.20
20977;DHT22;10647;51.016;3.720;2023-05-29T10:24:00;20.90;96.10
20977;DHT22;10647;51.016;3.720;2023-05-29T10:26:31;21.00;96.20
20977;DHT22;10647;51.016;3.720;2023-05-29T10:30:04;21.10;95.90
20977;DHT22;10647;51.016;3.720;2023-05-29T10:37:44;21.40;95.50
20977;DHT22;10647;51.016;3.720;2023-05-29T10:40:12;21.60;94.80
20977;DHT22;10647;51.016;3.720;2023-05-29T10:42:45;21.70;94.60
20977;DHT22;10647;51.016;3.720;2023-05-29T10:50:46;21.90;93.80
20977;DHT22;10647;51.016;3.720;2023-05-29T10:53:26;22.00;93.50
20977;DHT22;10647;51.016;3.720;2023-05-29T10:55:54;22.00;93.10
20977;DHT22;10647;51.016;3.720;2023-05-29T10:58:23;21.80;92.80
20977;DHT22;10647;51.016;3.720;2023-05-29T11:00:52;21.70;92.80
20977;DHT22;10647;51.016;3.720;2023-05-29T11:03:23;21.50;92.80
20977;DHT22;10647;51.016;3.720;2023-05-29T11:06:02;21.60;92.70
20977;DHT22;10647;51.016;3.720;2023-05-29T11:08:56;21.50;92.60
20977;DHT22;10647;51.016;3.720;2023-05-29T11:11:31;21.40;93.00
20977;DHT22;10647;51.016;3.720;2023-05-29T11:14:06;21.40;93.00
20977;DHT22;10647;51.016;3.720;2023-05-29T11:16:36;21.60;92.70
20977;DHT22;10647;51.016;3.720;2023-05-29T11:19:06;21.60;92.80
20977;DHT22;10647;51.016;3.720;2023-05-29T11:24:29;22.00;92.30
20977;DHT22;10647;51.016;3.720;2023-05-29T11:26:57;22.20;91.80
20977;DHT22;10647;51.016;3.720;2023-05-29T11:29:29;22.00;91.70
20977;DHT22;10647;51.016;3.720;2023-05-29T11:32:06;22.10;91.90
20977;DHT22;10647;51.016;3.720;2023-05-29T11:34:39;22.20;91.60
20977;DHT22;10647;51.016;3.720;2023-05-29T11:37:07;22.30;91.20
20977;DHT22;10647;51.016;3.720;2023-05-29T11:39:38;22.50;90.70
20977;DHT22;10647;51.016;3.720;2023-05-29T11:42:07;22.60;90.70
20977;DHT22;10647;51.016;3.720;2023-05-29T11:44:38;22.80;90.40
20977;DHT22;10647;51.016;3.720;2023-05-29T11:47:07;23.00;90.30
20977;DHT22;10647;51.016;3.720;2023-05-29T11:49:37;22.90;90.00
20977;DHT22;10647;51.016;3.720;2023-05-29T11:52:12;23.10;90.00
20977;DHT22;10647;51.016;3.720;2023-05-29T11:54:43;23.20;89.50
20977;DHT22;10647;51.016;3.720;2023-05-29T11:57:21;23.20;89.40
20977;DHT22;10647;51.016;3.720;2023-05-29T11:59:42;23.00;89.50
20977;DHT22;10647;51.016;3.720;2023-05-29T12:02:10;22.90;89.70
20977;DHT22;10647;51.016;3.720;2023-05-29T12:04:39;23.00;89.80
20977;DHT22;10647;51.016;3.720;2023-05-29T12:07:19;23.20;88.80
20977;DHT22;10647;51.016;3.720;2023-05-29T12:09:47;23.50;88.20
20977;DHT22;10647;51.016;3.720;2023-05-29T12:12:16;23.60;88.00
20977;DHT22;10647;51.016;3.720;2023-05-29T12:14:53;23.60;87.20
20977;DHT22;10647;51.016;3.720;2023-05-29T12:17:18;23.50;86.60
20977;DHT22;10647;51.016;3.720;2023-05-29T12:19:47;23.60;86.50
20977;DHT22;10647;51.016;3.720;2023-05-29T12:22:14;23.80;86.00
20977;DHT22;10647;51.016;3.720;2023-05-29T12:24:42;24.00;85.80
20977;DHT22;10647;51.016;3.720;2023-05-29T12:27:09;24.30;85.20
20977;DHT22;10647;51.016;3.720;2023-05-29T12:29:37;24.30;83.70
20977;DHT22;10647;51.016;3.720;2023-05-29T12:32:09;24.30;84.10
20977;DHT22;10647;51.016;3.720;2023-05-29T12:34:35;24.50;83.40
20977;DHT22;10647;51.016;3.720;2023-05-29T12:37:09;24.70;83.70
20977;DHT22;10647;51.016;3.720;2023-05-29T12:39:45;24.70;81.40
20977;DHT22;10647;51.016;3.720;2023-05-29T12:42:16;24.50;81.50
20977;DHT22;10647;51.016;3.720;2023-05-29T12:44:46;24.30;81.60
20977;DHT22;10647;51.016;3.720;2023-05-29T12:47:14;24.50;81.40
20977;DHT22;10647;51.016;3.720;2023-05-29T12:49:42;24.60;81.10
20977;DHT22;10647;51.016;3.720;2023-05-29T12:52:10;24.40;81.00
20977;DHT22;10647;51.016;3.720;2023-05-29T12:54:39;24.60;81.10
20977;DHT22;10647;51.016;3.720;2023-05-29T12:57:06;24.90;80.50
20977;DHT22;10647;51.016;3.720;2023-05-29T12:59:34;25.40;79.80
20977;DHT22;10647;51.016;3.720;2023-05-29T13:02:02;27.80;76.50
20977;DHT22;10647;51.016;3.720;2023-05-29T13:04:29;30.60;70.70
20977;DHT22;10647;51.016;3.720;2023-05-29T13:06:57;33.30;64.60
20977;DHT22;10647;51.016;3.720;2023-05-29T13:09:25;35.10;58.80
20977;DHT22;10647;51.016;3.720;2023-05-29T13:11:53;35.70;55.30
20977;DHT22;10647;51.016;3.720;2023-05-29T13:14:20;36.70;53.70
20977;DHT22;10647;51.016;3.720;2023-05-29T13:16:48;37.90;51.30
20977;DHT22;10647;51.016;3.720;2023-05-29T13:19:16;39.00;47.70
20977;DHT22;10647;51.016;3.720;2023-05-29T13:21:44;40.10;45.60
20977;DHT22;10647;51.016;3.720;2023-05-29T13:24:13;40.90;43.10
20977;DHT22;10647;51.016;3.720;2023-05-29T13:26:41;40.80;41.70
20977;DHT22;10647;51.016;3.720;2023-05-29T13:29:09;41.00;40.80
20977;DHT22;10647;51.016;3.720;2023-05-29T13:31:37;41.20;40.10
20977;DHT22;10647;51.016;3.720;2023-05-29T13:34:04;40.80;39.90
20977;DHT22;10647;51.016;3.720;2023-05-29T13:36:32;40.40;39.90
20977;DHT22;10647;51.016;3.720;2023-05-29T13:38:59;40.30;39.30
20977;DHT22;10647;51.016;3.720;2023-05-29T13:41:27;39.80;39.10
20977;DHT22;10647;51.016;3.720;2023-05-29T13:43:54;39.90;39.50
20977;DHT22;10647;51.016;3.720;2023-05-29T13:46:23;40.10;39.00
20977;DHT22;10647;51.016;3.720;2023-05-29T13:48:50;40.50;38.50
20977;DHT22;10647;51.016;3.720;2023-05-29T13:51:18;40.10;38.10
20977;DHT22;10647;51.016;3.720;2023-05-29T13:53:45;39.90;38.30
20977;DHT22;10647;51.016;3.720;2023-05-29T13:56:13;38.20;38.80
20977;DHT22;10647;51.016;3.720;2023-05-29T13:58:40;38.20;39.60
20977;DHT22;10647;51.016;3.720;2023-05-29T14:01:08;38.60;38.90
20977;DHT22;10647;51.016;3.720;2023-05-29T14:03:35;39.00;38.20
20977;DHT22;10647;51.016;3.720;2023-05-29T14:06:03;39.00;37.30
20977;DHT22;10647;51.016;3.720;2023-05-29T14:08:33;38.00;37.90
20977;DHT22;10647;51.016;3.720;2023-05-29T14:11:00;37.40;39.40
20977;DHT22;10647;51.016;3.720;2023-05-29T14:13:28;38.30;38.90
20977;DHT22;10647;51.016;3.720;2023-05-29T14:15:55;39.10;38.40
20977;DHT22;10647;51.016;3.720;2023-05-29T14:18:29;39.20;37.90
20977;DHT22;10647;51.016;3.720;2023-05-29T14:20:56;38.90;37.80
20977;DHT22;10647;51.016;3.720;2023-05-29T14:23:24;38.90;38.10
20977;DHT22;10647;51.016;3.720;2023-05-29T14:25:51;39.30;37.70
20977;DHT22;10647;51.016;3.720;2023-05-29T14:28:19;39.00;37.40
20977;DHT22;10647;51.016;3.720;2023-05-29T14:30:46;38.80;38.20
20977;DHT22;10647;51.016;3.720;2023-05-29T14:33:15;38.80;38.50
20977;DHT22;10647;51.016;3.720;2023-05-29T14:35:42;38.50;38.60
20977;DHT22;10647;51.016;3.720;2023-05-29T14:38:10;38.80;38.60
20977;DHT22;10647;51.016;3.720;2023-05-29T14:40:37;38.60;38.10
20977;DHT22;10647;51.016;3.720;2023-05-29T14:43:05;37.90;38.50
20977;DHT22;10647;51.016;3.720;2023-05-29T14:45:33;36.90;39.60
20977;DHT22;10647;51.016;3.720;2023-05-29T14:48:01;36.90;40.00
20977;DHT22;10647;51.016;3.720;2023-05-29T14:50:28;36.50;40.40
20977;DHT22;10647;51.016;3.720;2023-05-29T14:52:56;36.90;40.20
20977;DHT22;10647;51.016;3.720;2023-05-29T14:55:23;37.40;39.80
20977;DHT22;10647;51.016;3.720;2023-05-29T14:57:51;37.60;39.40
20977;DHT22;10647;51.016;3.720;2023-05-29T15:00:19;37.50;39.90
20977;DHT22;10647;51.016;3.720;2023-05-29T15:02:46;37.60;39.50
20977;DHT22;10647;51.016;3.720;2023-05-29T15:05:16;36.70;40.20
20977;DHT22;10647;51.016;3.720;2023-05-29T15:07:45;36.60;40.60
20977;DHT22;10647;51.016;3.720;2023-05-29T15:10:12;35.90;41.20
20977;DHT22;10647;51.016;3.720;2023-05-29T15:12:40;35.50;41.70
20977;DHT22;10647;51.016;3.720;2023-05-29T15:15:08;35.00;43.10
20977;DHT22;10647;51.016;3.720;2023-05-29T15:17:36;35.30;42.10
20977;DHT22;10647;51.016;3.720;2023-05-29T15:20:06;35.10;42.00
20977;DHT22;10647;51.016;3.720;2023-05-29T15:22:33;35.10;42.10
20977;DHT22;10647;51.016;3.720;2023-05-29T15:25:01;35.00;41.90
20977;DHT22;10647;51.016;3.720;2023-05-29T15:27:28;33.90;43.30
20977;DHT22;10647;51.016;3.720;2023-05-29T15:30:20;33.10;44.20
20977;DHT22;10647;51.016;3.720;2023-05-29T15:32:28;32.90;44.80
20977;DHT22;10647;51.016;3.720;2023-05-29T15:34:55;32.80;45.10
20977;DHT22;10647;51.016;3.720;2023-05-29T15:37:23;32.60;45.30
20977;DHT22;10647;51.016;3.720;2023-05-29T15:39:55;31.70;46.20
20977;DHT22;10647;51.016;3.720;2023-05-29T15:42:22;30.90;47.30
20977;DHT22;10647;51.016;3.720;2023-05-29T15:44:56;30.30;48.40
20977;DHT22;10647;51.016;3.720;2023-05-29T15:47:23;29.40;49.80
20977;DHT22;10647;51.016;3.720;2023-05-29T15:49:51;29.20;50.90
20977;DHT22;10647;51.016;3.720;2023-05-29T15:52:19;29.10;50.50
20977;DHT22;10647;51.016;3.720;2023-05-29T15:54:46;28.90;50.80
20977;DHT22;10647;51.016;3.720;2023-05-29T15:57:14;28.80;50.80